createdAt,value
2023-02-02T00:01:29.959Z,1.40
2023-02-02T00:04:00.214Z,1.15
2023-02-02T00:06:31.552Z,2.05
2023-02-02T00:09:02.565Z,2.38
2023-02-02T00:11:32.552Z,1.80
2023-02-02T00:14:05.116Z,2.00
2023-02-02T00:16:48.479Z,1.00
2023-02-02T00:19:19.689Z,1.80
2023-02-02T00:21:49.720Z,1.30
2023-02-02T00:24:20.889Z,0.90
2023-02-02T00:26:52.708Z,1.38
2023-02-02T00:29:27.836Z,1.88
2023-02-02T00:31:57.917Z,1.88
2023-02-02T00:34:28.208Z,1.40
2023-02-02T00:36:58.150Z,1.10
2023-02-02T00:39:29.696Z,2.13
2023-02-02T00:41:59.688Z,1.08
2023-02-02T00:44:44.606Z,1.10
2023-02-02T00:47:14.639Z,1.60
2023-02-02T00:49:44.588Z,1.98
2023-02-02T00:52:15.238Z,1.70
2023-02-02T00:54:45.165Z,1.60
2023-02-02T00:57:16.594Z,1.83
2023-02-02T00:59:49.168Z,1.75
2023-02-02T01:02:19.182Z,1.58
2023-02-02T01:04:49.117Z,1.17
2023-02-02T01:07:19.023Z,1.10
2023-02-02T01:09:49.009Z,0.70
2023-02-02T01:12:18.957Z,1.40
2023-02-02T01:14:51.468Z,1.58
2023-02-02T01:17:21.676Z,1.20
2023-02-02T01:19:51.686Z,0.60
2023-02-02T01:22:21.802Z,1.38
2023-02-02T01:24:51.783Z,1.45
2023-02-02T01:27:21.780Z,0.98
2023-02-02T01:29:54.361Z,1.05
2023-02-02T01:32:24.289Z,1.30
2023-02-02T01:34:54.269Z,1.45
2023-02-02T01:37:24.649Z,0.60
2023-02-02T01:39:54.557Z,0.65
2023-02-02T01:42:25.591Z,1.10
2023-02-02T01:45:21.454Z,1.05
2023-02-02T01:47:53.606Z,1.83
2023-02-02T01:50:26.529Z,1.02
2023-02-02T01:52:58.098Z,0.52
2023-02-02T01:55:29.553Z,1.50
2023-02-02T01:58:01.862Z,1.50
2023-02-02T02:00:34.510Z,1.45
2023-02-02T02:03:08.388Z,1.33
2023-02-02T02:05:44.114Z,1.15
2023-02-02T02:08:18.478Z,1.20
2023-02-02T02:10:48.797Z,0.88
2023-02-02T02:13:19.417Z,0.98
2023-02-02T02:16:08.669Z,1.35
2023-02-02T02:21:43.096Z,1.23
2023-02-02T02:24:55.124Z,1.45
2023-02-02T02:28:00.841Z,1.38
2023-02-02T02:31:03.282Z,1.42
2023-02-02T02:33:42.420Z,1.15
2023-02-02T02:36:20.257Z,1.48
2023-02-02T02:38:54.770Z,1.30
2023-02-02T02:41:26.821Z,0.68
2023-02-02T02:43:59.556Z,1.60
2023-02-02T02:46:29.917Z,0.85
2023-02-02T02:49:04.244Z,1.42
2023-02-02T02:51:46.326Z,1.25
2023-02-02T02:54:23.006Z,1.73
2023-02-02T02:57:14.842Z,0.88
2023-02-02T02:59:50.123Z,0.98
2023-02-02T03:02:29.984Z,1.15
2023-02-02T03:05:10.253Z,1.85
2023-02-02T03:07:44.576Z,0.77
2023-02-02T03:10:16.520Z,1.55
2023-02-02T03:12:48.174Z,1.25
2023-02-02T03:15:18.813Z,1.50
2023-02-02T03:17:49.667Z,0.32
2023-02-02T03:20:22.805Z,1.50
2023-02-02T03:22:52.739Z,1.05
2023-02-02T03:25:24.045Z,1.30
2023-02-02T03:27:54.324Z,1.60
2023-02-02T03:30:25.608Z,2.03
2023-02-02T03:32:55.786Z,1.42
2023-02-02T03:35:28.531Z,1.73
2023-02-02T03:37:58.547Z,1.02
2023-02-02T03:40:28.524Z,0.90
2023-02-02T03:42:59.007Z,1.30
2023-02-02T03:45:30.435Z,1.23
2023-02-02T03:48:00.365Z,1.33
2023-02-02T03:50:32.962Z,0.60
2023-02-02T03:53:02.922Z,1.48
2023-02-02T03:55:32.843Z,1.20
2023-02-02T03:58:02.756Z,1.10
2023-02-02T04:00:32.747Z,1.15
2023-02-02T04:03:03.057Z,1.27
2023-02-02T04:05:35.641Z,1.30
2023-02-02T04:08:05.596Z,1.73
2023-02-02T04:10:35.616Z,1.95
2023-02-02T04:13:05.588Z,1.10
2023-02-02T04:15:35.586Z,2.28
2023-02-02T04:18:05.508Z,0.95
2023-02-02T04:20:38.064Z,1.30
2023-02-02T04:23:08.031Z,1.40
2023-02-02T04:25:37.976Z,2.00
2023-02-02T04:28:08.281Z,1.83
2023-02-02T04:30:38.276Z,2.17
2023-02-02T04:33:08.202Z,1.02
2023-02-02T04:35:40.799Z,1.92
2023-02-02T04:38:10.723Z,2.45
2023-02-02T04:40:41.787Z,1.95
2023-02-02T04:43:11.978Z,1.02
2023-02-02T04:45:42.562Z,0.68
2023-02-02T04:48:12.612Z,1.60
2023-02-02T04:50:45.197Z,1.90
2023-02-02T04:53:15.139Z,1.92
2023-02-02T04:55:45.096Z,0.88
2023-02-02T04:58:15.050Z,1.73
2023-02-02T05:00:45.044Z,1.27
2023-02-02T05:03:15.021Z,1.50
2023-02-02T05:05:47.544Z,1.77
2023-02-02T05:08:17.479Z,1.42
2023-02-02T05:10:47.601Z,1.60
2023-02-02T05:13:17.513Z,1.25
2023-02-02T05:15:47.513Z,1.45
2023-02-02T05:18:17.572Z,0.75
2023-02-02T05:20:50.095Z,1.20
2023-02-02T05:23:20.023Z,1.35
2023-02-02T05:25:55.052Z,1.20
2023-02-02T05:28:25.519Z,1.90
2023-02-02T05:30:55.632Z,1.20
2023-02-02T05:33:25.625Z,1.23
2023-02-02T05:35:58.164Z,0.90
2023-02-02T05:38:28.168Z,0.88
2023-02-02T05:40:58.070Z,1.52
2023-02-02T05:43:28.856Z,1.42
2023-02-02T05:45:58.957Z,0.88
2023-02-02T05:48:29.116Z,1.33
2023-02-02T05:51:04.835Z,0.95
2023-02-02T05:53:35.713Z,1.00
2023-02-02T05:56:05.815Z,1.30
2023-02-02T05:58:36.043Z,0.75
2023-02-02T06:01:06.435Z,1.60
2023-02-02T06:03:36.555Z,0.77
2023-02-02T06:06:09.422Z,2.65
2023-02-02T06:08:39.676Z,1.33
2023-02-02T06:11:13.577Z,2.00
2023-02-02T06:13:45.814Z,1.00
2023-02-02T06:16:16.129Z,1.65
2023-02-02T06:18:46.116Z,1.58
2023-02-02T06:21:19.968Z,1.00
2023-02-02T06:23:49.920Z,1.23
2023-02-02T06:26:20.351Z,1.10
2023-02-02T06:28:52.880Z,1.25
2023-02-02T06:31:23.315Z,2.25
2023-02-02T06:33:57.316Z,1.30
2023-02-02T06:36:30.873Z,1.58
2023-02-02T06:39:00.924Z,1.50
2023-02-02T06:41:31.696Z,1.88
2023-02-02T06:44:01.696Z,1.73
2023-02-02T06:46:31.983Z,1.60
2023-02-02T06:49:02.044Z,0.70
2023-02-02T06:51:34.572Z,1.27
2023-02-02T06:54:04.494Z,0.68
2023-02-02T06:56:34.570Z,1.35
2023-02-02T06:59:04.515Z,1.55
2023-02-02T07:01:34.738Z,1.10
2023-02-02T07:04:04.662Z,1.42
2023-02-02T07:06:37.206Z,1.23
2023-02-02T07:09:07.346Z,1.95
2023-02-02T07:11:43.402Z,1.52
2023-02-02T07:14:15.890Z,4.13
2023-02-02T07:16:45.987Z,1.83
2023-02-02T07:19:15.981Z,4.90
2023-02-02T07:21:48.554Z,1.75
2023-02-02T07:24:18.612Z,1.55
2023-02-02T07:26:48.688Z,1.23
2023-02-02T07:29:19.199Z,1.67
2023-02-02T07:31:49.208Z,1.48
2023-02-02T07:34:19.231Z,1.80
2023-02-02T07:36:51.799Z,1.80
2023-02-02T07:39:21.786Z,1.17
2023-02-02T07:41:51.908Z,1.25
2023-02-02T07:44:37.408Z,1.42
2023-02-02T07:47:07.722Z,1.80
2023-02-02T07:49:37.941Z,1.38
2023-02-02T07:52:10.779Z,1.13
2023-02-02T07:54:40.696Z,0.90
2023-02-02T07:57:10.925Z,1.00
2023-02-02T07:59:40.844Z,1.30
2023-02-02T08:02:12.432Z,0.85
2023-02-02T08:04:42.533Z,1.40
2023-02-02T08:07:15.205Z,1.30
2023-02-02T08:09:50.431Z,1.73
2023-02-02T08:12:21.260Z,1.38
2023-02-02T08:14:51.257Z,1.65
2023-02-02T08:17:23.086Z,0.82
2023-02-02T08:19:53.034Z,0.35
2023-02-02T08:22:26.057Z,0.82
2023-02-02T08:24:56.125Z,1.38
2023-02-02T08:27:26.051Z,1.80
2023-02-02T08:29:55.976Z,1.05
2023-02-02T08:32:26.082Z,3.47
2023-02-02T08:34:56.076Z,1.38
2023-02-02T08:37:29.927Z,1.10
2023-02-02T08:39:59.919Z,0.75
2023-02-02T08:42:29.903Z,0.55
2023-02-02T08:46:01.172Z,0.38
2023-02-02T08:47:58.876Z,1.20
2023-02-02T08:50:35.373Z,0.10
2023-02-02T08:53:07.894Z,0.65
2023-02-02T08:55:38.630Z,0.40
2023-02-02T08:58:10.162Z,0.52
2023-02-02T09:00:40.520Z,1.00
2023-02-02T09:03:10.740Z,1.15
2023-02-02T09:05:41.193Z,0.73
2023-02-02T09:08:13.768Z,0.88
2023-02-02T09:10:43.709Z,0.63
2023-02-02T09:13:13.698Z,0.45
2023-02-02T09:15:43.679Z,0.10
2023-02-02T09:18:14.165Z,0.65
2023-02-02T09:20:44.127Z,0.30
2023-02-02T09:23:16.710Z,0.80
2023-02-02T09:25:46.720Z,0.70
2023-02-02T09:28:16.648Z,1.10
2023-02-02T09:30:46.589Z,0.47
2023-02-02T09:33:16.537Z,1.00
2023-02-02T09:35:46.507Z,0.38
2023-02-02T09:38:19.017Z,0.60
2023-02-02T09:40:48.967Z,0.82
2023-02-02T09:43:31.703Z,1.20
2023-02-02T09:46:08.602Z,0.95
2023-02-02T09:48:45.603Z,0.75
2023-02-02T09:51:18.765Z,1.67
2023-02-02T09:53:56.092Z,0.50
2023-02-02T09:56:29.256Z,0.70
2023-02-02T09:59:10.211Z,1.42
2023-02-02T10:01:48.760Z,1.20
2023-02-02T10:04:22.242Z,0.60
2023-02-02T10:06:54.275Z,0.75
2023-02-02T10:09:34.643Z,1.13
2023-02-02T10:12:08.189Z,1.17
2023-02-02T10:14:42.059Z,0.30
2023-02-02T10:17:33.241Z,0.60
2023-02-02T10:20:07.260Z,0.70
2023-02-02T10:22:37.475Z,0.60
2023-02-02T10:25:15.092Z,0.73
2023-02-02T10:27:49.266Z,0.85
2023-02-02T10:30:22.869Z,0.98
2023-02-02T10:33:01.536Z,0.82
2023-02-02T10:35:38.856Z,1.98
2023-02-02T10:38:16.604Z,0.55
2023-02-02T10:40:57.094Z,0.93
2023-02-02T10:43:51.622Z,0.77
2023-02-02T10:46:25.491Z,1.40
2023-02-02T10:49:03.942Z,0.63
2023-02-02T10:51:33.965Z,0.77
2023-02-02T10:54:08.594Z,0.65
2023-02-02T10:56:43.459Z,0.80
2023-02-02T10:59:16.473Z,1.65
2023-02-02T11:01:46.472Z,0.40
2023-02-02T11:04:28.769Z,0.45
2023-02-02T11:07:01.460Z,0.55
2023-02-02T11:09:34.690Z,0.85
2023-02-02T11:12:09.957Z,0.28
2023-02-02T11:14:46.134Z,0.75
2023-02-02T11:17:23.559Z,0.60
2023-02-02T11:19:55.853Z,0.75
2023-02-02T11:22:32.501Z,1.23
2023-02-02T11:25:04.287Z,0.93
2023-02-02T11:27:42.432Z,0.90
2023-02-02T11:30:16.132Z,0.88
2023-02-02T11:32:48.037Z,0.70
2023-02-02T11:35:23.748Z,0.30
2023-02-02T11:38:12.296Z,0.65
2023-02-02T11:40:43.914Z,1.10
2023-02-02T11:43:22.111Z,1.45
2023-02-02T11:45:57.053Z,0.77
2023-02-02T11:48:31.380Z,0.73
2023-02-02T11:51:02.961Z,0.60
2023-02-02T11:53:35.299Z,0.75
2023-02-02T11:56:09.076Z,1.08
2023-02-02T11:58:52.247Z,1.10
2023-02-02T12:01:29.923Z,0.65
2023-02-02T12:04:01.633Z,1.65
2023-02-02T12:06:39.004Z,1.30
2023-02-02T12:09:15.843Z,1.00
2023-02-02T12:11:53.130Z,1.13
2023-02-02T12:14:32.791Z,0.28
2023-02-02T12:17:12.409Z,1.20
2023-02-02T12:19:53.340Z,1.08
2023-02-02T12:22:32.951Z,0.80
2023-02-02T12:25:09.391Z,1.02
2023-02-02T12:27:44.796Z,0.95
2023-02-02T12:30:29.953Z,1.17
2023-02-02T12:33:21.553Z,0.90
2023-02-02T12:36:00.990Z,1.27
2023-02-02T12:38:45.713Z,1.35
2023-02-02T12:41:30.141Z,0.85
2023-02-02T12:44:03.185Z,1.23
2023-02-02T12:46:47.444Z,1.27
2023-02-02T12:49:31.064Z,1.02
2023-02-02T12:52:16.200Z,0.70
2023-02-02T12:54:59.851Z,0.55
2023-02-02T12:57:37.967Z,1.70
2023-02-02T13:00:38.550Z,1.17
2023-02-02T13:03:23.281Z,1.67
2023-02-02T13:06:02.513Z,1.10
2023-02-02T13:08:36.603Z,0.95
2023-02-02T13:11:29.234Z,1.33
2023-02-02T13:14:02.379Z,0.95
2023-02-02T13:16:33.017Z,0.90
2023-02-02T13:19:08.938Z,1.10
2023-02-02T13:21:40.458Z,1.23
2023-02-02T13:24:11.241Z,1.10
2023-02-02T13:26:44.708Z,1.13
2023-02-02T13:29:22.914Z,1.50
2023-02-02T13:31:58.183Z,0.90
2023-02-02T13:34:35.800Z,0.88
2023-02-02T13:37:10.097Z,0.90
2023-02-02T13:39:43.026Z,1.50
2023-02-02T13:42:22.883Z,1.35
2023-02-02T13:44:55.985Z,1.60
2023-02-02T13:47:29.173Z,0.95
2023-02-02T13:50:06.686Z,0.95
2023-02-02T13:53:01.662Z,1.23
2023-02-02T13:55:49.900Z,0.77
2023-02-02T13:58:29.979Z,0.80
2023-02-02T14:01:04.542Z,1.00
2023-02-02T14:03:38.918Z,0.80
2023-02-02T14:06:14.775Z,0.90
2023-02-02T14:08:51.191Z,0.98
2023-02-02T14:11:27.110Z,0.60
2023-02-02T14:14:11.265Z,1.20
2023-02-02T14:16:52.778Z,0.80
2023-02-02T14:19:55.533Z,1.77
2023-02-02T14:22:48.083Z,0.45
2023-02-02T14:25:48.698Z,1.60
2023-02-02T14:28:43.097Z,5.05
2023-02-02T14:31:32.367Z,2.17
2023-02-02T14:36:59.839Z,1.35
2023-02-02T14:39:34.178Z,1.80
2023-02-02T14:42:36.064Z,9.95
2023-02-02T14:45:28.064Z,3.50
2023-02-02T14:48:00.663Z,3.00
2023-02-02T14:50:43.625Z,2.08
2023-02-02T14:53:22.852Z,1.30
2023-02-02T14:56:00.102Z,1.20
2023-02-02T14:58:35.008Z,1.00
2023-02-02T15:01:13.793Z,0.95
2023-02-02T15:03:53.160Z,0.20
2023-02-02T15:09:45.574Z,3.58
2023-02-02T15:12:29.943Z,2.53
2023-02-02T15:15:08.195Z,0.80
2023-02-02T15:17:51.860Z,3.90
2023-02-02T15:20:24.592Z,5.63
2023-02-02T15:23:00.984Z,2.38
2023-02-02T15:25:34.979Z,3.15
2023-02-02T15:28:13.387Z,1.60
2023-02-02T15:30:46.892Z,2.67
2023-02-02T15:33:27.349Z,1.20
2023-02-02T15:35:57.780Z,1.27
2023-02-02T15:38:33.886Z,1.13
2023-02-02T15:41:07.742Z,1.20
2023-02-02T15:43:40.484Z,1.17
2023-02-02T15:46:14.292Z,1.42
2023-02-02T15:48:44.277Z,0.82
2023-02-02T15:51:22.139Z,1.70
2023-02-02T15:53:54.896Z,1.30
2023-02-02T15:56:32.418Z,1.35
2023-02-02T15:59:05.593Z,0.82
2023-02-02T16:01:36.714Z,1.15
2023-02-02T16:04:17.341Z,0.88
2023-02-02T16:06:48.497Z,1.30
2023-02-02T16:09:25.895Z,0.90
2023-02-02T16:11:58.695Z,1.15
2023-02-02T16:14:34.316Z,0.70
2023-02-02T16:17:14.740Z,0.90
2023-02-02T16:19:46.453Z,0.57
2023-02-02T16:22:19.285Z,1.00
2023-02-02T16:24:51.216Z,1.10
2023-02-02T16:27:23.321Z,0.77
2023-02-02T16:29:56.701Z,1.35
2023-02-02T16:32:31.862Z,1.88
2023-02-02T16:35:06.511Z,1.38
2023-02-02T16:37:38.075Z,0.95
2023-02-02T16:40:22.955Z,1.88
2023-02-02T16:43:07.407Z,1.45
2023-02-02T16:45:49.855Z,1.10
2023-02-02T16:48:32.063Z,1.80
2023-02-02T16:51:29.176Z,1.77
2023-02-02T16:54:02.392Z,1.73
2023-02-02T16:56:34.808Z,1.45
2023-02-02T16:59:07.657Z,1.65
2023-02-02T17:01:45.323Z,1.60
2023-02-02T17:04:21.850Z,2.10
2023-02-02T17:06:53.494Z,1.60
2023-02-02T17:09:35.810Z,1.60
2023-02-02T17:12:14.336Z,2.05
2023-02-02T17:14:55.202Z,1.80
2023-02-02T17:17:28.166Z,1.50
2023-02-02T17:19:58.323Z,2.15
2023-02-02T17:22:29.277Z,2.22
2023-02-02T17:24:59.377Z,1.80
2023-02-02T17:27:33.763Z,2.13
2023-02-02T17:30:04.365Z,1.60
2023-02-02T17:32:37.056Z,1.92
2023-02-02T17:35:13.758Z,2.10
2023-02-02T17:37:43.723Z,2.53
2023-02-02T17:40:16.307Z,2.00
2023-02-02T17:42:47.540Z,1.73
2023-02-02T17:45:20.755Z,2.10
2023-02-02T17:47:56.540Z,1.90
2023-02-02T17:50:26.954Z,2.05
2023-02-02T17:52:57.449Z,2.00
2023-02-02T17:55:29.019Z,2.10
2023-02-02T17:58:01.432Z,2.95
2023-02-02T18:00:32.090Z,2.65
2023-02-02T18:03:10.385Z,1.70
2023-02-02T18:05:43.443Z,2.00
2023-02-02T18:08:14.357Z,2.28
2023-02-02T18:10:45.319Z,1.95
2023-02-02T18:13:17.001Z,2.80
2023-02-02T18:15:47.336Z,2.30
2023-02-02T18:18:20.212Z,2.03
2023-02-02T18:20:51.942Z,2.10
2023-02-02T18:23:24.745Z,2.50
2023-02-02T18:25:55.512Z,3.13
2023-02-02T18:28:25.644Z,3.05
2023-02-02T18:30:58.340Z,3.22
2023-02-02T18:33:31.032Z,2.65
2023-02-02T18:36:01.012Z,1.25
2023-02-02T18:38:31.142Z,2.85
2023-02-02T18:41:02.126Z,2.97
2023-02-02T18:43:32.625Z,3.75
2023-02-02T18:46:04.770Z,3.28
2023-02-02T18:48:38.553Z,2.33
2023-02-02T18:51:09.442Z,2.78
2023-02-02T18:53:40.039Z,2.70
2023-02-02T18:56:12.476Z,3.05
2023-02-02T18:58:43.437Z,2.97
2023-02-02T19:01:15.602Z,3.08
2023-02-02T19:03:51.549Z,2.33
2023-02-02T19:06:34.983Z,2.30
2023-02-02T19:09:05.241Z,2.80
2023-02-02T19:11:39.205Z,2.75
2023-02-02T19:14:16.414Z,3.30
2023-02-02T19:16:47.544Z,2.63
2023-02-02T19:19:26.087Z,2.78
2023-02-02T19:21:58.515Z,2.90
2023-02-02T19:24:29.546Z,2.90
2023-02-02T19:26:59.738Z,2.15
2023-02-02T19:29:33.452Z,2.80
2023-02-02T19:32:05.710Z,2.38
2023-02-02T19:34:38.559Z,2.58
2023-02-02T19:37:24.295Z,2.20
2023-02-02T19:39:56.530Z,3.10
2023-02-02T19:42:26.889Z,2.10
2023-02-02T19:44:57.065Z,2.65
2023-02-02T19:47:30.496Z,1.67
2023-02-02T19:50:15.873Z,1.67
2023-02-02T19:52:46.441Z,2.28
2023-02-02T19:55:27.020Z,1.40
2023-02-02T19:58:01.202Z,2.60
2023-02-02T20:00:33.775Z,2.10
2023-02-02T20:03:06.900Z,1.92
2023-02-02T20:05:42.187Z,1.50
2023-02-02T20:08:23.371Z,1.40
2023-02-02T20:10:54.239Z,2.03
2023-02-02T20:13:25.678Z,1.52
2023-02-02T20:16:03.971Z,1.38
2023-02-02T20:18:42.735Z,1.80
2023-02-02T20:21:23.335Z,0.95
2023-02-02T20:23:53.380Z,1.85
2023-02-02T20:26:26.477Z,1.50
2023-02-02T20:28:57.779Z,1.52
2023-02-02T20:31:30.483Z,0.88
2023-02-02T20:34:00.738Z,1.48
2023-02-02T20:36:40.705Z,1.75
2023-02-02T20:39:26.584Z,1.35
2023-02-02T20:41:57.425Z,1.20
2023-02-02T20:44:27.883Z,1.77
2023-02-02T20:46:58.301Z,1.90
2023-02-02T20:49:28.360Z,1.80
2023-02-02T20:52:02.781Z,1.55
2023-02-02T20:54:34.136Z,1.30
2023-02-02T20:57:04.880Z,1.55
2023-02-02T20:59:34.904Z,1.90
2023-02-02T21:02:05.489Z,1.10
2023-02-02T21:04:35.757Z,1.23
2023-02-02T21:07:08.336Z,1.67
2023-02-02T21:09:38.349Z,2.45
2023-02-02T21:12:11.584Z,1.80
2023-02-02T21:14:41.839Z,1.20
2023-02-02T21:17:15.871Z,1.45
2023-02-02T21:19:46.589Z,1.92
2023-02-02T21:22:19.242Z,1.65
2023-02-02T21:24:49.340Z,1.27
2023-02-02T21:27:20.133Z,1.50
2023-02-02T21:29:50.099Z,1.50
2023-02-02T21:32:20.375Z,1.25
2023-02-02T21:34:51.919Z,1.35
2023-02-02T21:37:24.518Z,1.45
2023-02-02T21:39:54.519Z,1.45
2023-02-02T21:42:25.399Z,1.10
2023-02-02T21:44:58.698Z,1.45
2023-02-02T21:47:35.871Z,1.33
2023-02-02T21:50:18.123Z,1.30
2023-02-02T21:52:50.725Z,10.93
2023-02-02T21:55:34.773Z,25.30
2023-02-02T21:58:14.774Z,14.85
2023-02-02T22:00:44.792Z,15.27
2023-02-02T22:03:36.165Z,6.20
2023-02-02T22:06:24.810Z,2.35
2023-02-02T22:09:03.048Z,4.43
2023-02-02T22:11:39.990Z,2.33
2023-02-02T22:14:20.587Z,4.22
2023-02-02T22:16:53.187Z,2.50
2023-02-02T22:19:35.278Z,2.20
2023-02-02T22:22:18.297Z,2.20
2023-02-02T22:25:01.100Z,1.65
2023-02-02T22:27:41.790Z,1.95
2023-02-02T22:30:22.569Z,1.30
2023-02-02T22:32:52.488Z,2.03
2023-02-02T22:35:22.436Z,1.17
2023-02-02T22:37:52.500Z,1.40
2023-02-02T22:40:25.765Z,1.60
2023-02-02T22:42:57.662Z,1.25
2023-02-02T22:45:28.187Z,1.50
2023-02-02T22:47:58.229Z,1.05
2023-02-02T22:50:29.776Z,1.02
2023-02-02T22:52:59.974Z,1.65
2023-02-02T22:55:32.790Z,4.25
2023-02-02T22:58:02.794Z,4.43
2023-02-02T23:00:34.675Z,3.35
2023-02-02T23:03:04.687Z,2.88
2023-02-02T23:05:34.722Z,2.30
2023-02-02T23:08:04.654Z,2.05
2023-02-02T23:10:37.472Z,1.90
2023-02-02T23:13:07.804Z,1.13
2023-02-02T23:15:37.900Z,0.93
2023-02-02T23:18:08.154Z,1.13
2023-02-02T23:20:38.098Z,2.90
2023-02-02T23:23:08.012Z,2.33
2023-02-02T23:25:40.517Z,2.35
2023-02-02T23:28:10.731Z,2.42
2023-02-02T23:30:40.811Z,6.10
2023-02-02T23:33:10.784Z,3.80
2023-02-02T23:35:40.771Z,29.17
2023-02-02T23:38:10.733Z,29.15
2023-02-02T23:40:43.347Z,10.73
2023-02-02T23:43:13.351Z,7.38
2023-02-02T23:45:43.468Z,4.95
2023-02-02T23:48:13.655Z,3.72
2023-02-02T23:50:44.406Z,3.80
2023-02-02T23:53:14.608Z,3.20
2023-02-02T23:55:47.271Z,2.20
2023-02-02T23:58:19.095Z,6.30
